sensor_id;sensor_type;location;lat;lon;timestamp;P1;durP1;ratioP1;P2;durP2;ratioP2
61393;SDS011;48555;50.952;-0.120;2024-02-21T00:01:34;10.63;;;2.35;;
61393;SDS011;48555;50.952;-0.120;2024-02-21T00:03:59;12.35;;;2.30;;
61393;SDS011;48555;50.952;-0.120;2024-02-21T00:06:24;13.40;;;2.30;;
61393;SDS011;48555;50.952;-0.120;2024-02-21T00:08:51;15.45;;;2.90;;
61393;SDS011;48555;50.952;-0.120;2024-02-21T00:11:16;11.77;;;2.78;;
61393;SDS011;48555;50.952;-0.120;2024-02-21T00:13:41;14.50;;;2.80;;
61393;SDS011;48555;50.952;-0.120;2024-02-21T00:16:07;8.93;;;2.20;;
61393;SDS011;48555;50.952;-0.120;2024-02-21T00:18:32;15.70;;;2.92;;
61393;SDS011;48555;50.952;-0.120;2024-02-21T00:20:57;11.82;;;2.40;;
61393;SDS011;48555;50.952;-0.120;2024-02-21T00:23:23;10.82;;;2.50;;
61393;SDS011;48555;50.952;-0.120;2024-02-21T00:25:48;17.10;;;2.92;;
61393;SDS011;48555;50.952;-0.120;2024-02-21T00:28:13;11.40;;;2.30;;
61393;SDS011;48555;50.952;-0.120;2024-02-21T00:30:39;8.60;;;2.30;;
61393;SDS011;48555;50.952;-0.120;2024-02-21T00:33:04;14.65;;;2.97;;
61393;SDS011;48555;50.952;-0.120;2024-02-21T00:35:30;12.52;;;2.65;;
61393;SDS011;48555;50.952;-0.120;2024-02-21T00:37:55;12.18;;;2.80;;
61393;SDS011;48555;50.952;-0.120;2024-02-21T00:40:22;14.18;;;3.08;;
61393;SDS011;48555;50.952;-0.120;2024-02-21T00:42:48;14.32;;;2.40;;
61393;SDS011;48555;50.952;-0.120;2024-02-21T00:45:13;13.00;;;2.95;;
61393;SDS011;48555;50.952;-0.120;2024-02-21T00:47:39;11.40;;;2.65;;
61393;SDS011;48555;50.952;-0.120;2024-02-21T00:50:04;12.65;;;2.65;;
61393;SDS011;48555;50.952;-0.120;2024-02-21T00:52:31;12.15;;;2.35;;
61393;SDS011;48555;50.952;-0.120;2024-02-21T00:54:57;13.20;;;3.22;;
61393;SDS011;48555;50.952;-0.120;2024-02-21T00:57:22;11.20;;;3.15;;
61393;SDS011;48555;50.952;-0.120;2024-02-21T00:59:48;10.40;;;2.95;;
61393;SDS011;48555;50.952;-0.120;2024-02-21T01:02:14;10.30;;;2.80;;
61393;SDS011;48555;50.952;-0.120;2024-02-21T01:04:39;10.45;;;3.10;;
61393;SDS011;48555;50.952;-0.120;2024-02-21T01:07:04;14.27;;;2.67;;
61393;SDS011;48555;50.952;-0.120;2024-02-21T01:09:30;14.95;;;2.60;;
61393;SDS011;48555;50.952;-0.120;2024-02-21T01:11:55;9.23;;;2.70;;
61393;SDS011;48555;50.952;-0.120;2024-02-21T01:14:20;11.88;;;2.60;;
61393;SDS011;48555;50.952;-0.120;2024-02-21T01:16:46;14.02;;;2.90;;
61393;SDS011;48555;50.952;-0.120;2024-02-21T01:19:11;9.23;;;2.58;;
61393;SDS011;48555;50.952;-0.120;2024-02-21T01:21:36;13.60;;;2.55;;
61393;SDS011;48555;50.952;-0.120;2024-02-21T01:24:02;9.95;;;2.10;;
61393;SDS011;48555;50.952;-0.120;2024-02-21T01:26:27;15.70;;;2.42;;
61393;SDS011;48555;50.952;-0.120;2024-02-21T01:28:52;9.40;;;2.33;;
61393;SDS011;48555;50.952;-0.120;2024-02-21T01:31:18;13.73;;;2.72;;
61393;SDS011;48555;50.952;-0.120;2024-02-21T01:33:43;13.60;;;2.58;;
61393;SDS011;48555;50.952;-0.120;2024-02-21T01:36:08;14.10;;;3.17;;
61393;SDS011;48555;50.952;-0.120;2024-02-21T01:38:34;16.45;;;3.05;;
61393;SDS011;48555;50.952;-0.120;2024-02-21T01:40:59;12.40;;;2.75;;
61393;SDS011;48555;50.952;-0.120;2024-02-21T01:43:25;10.43;;;2.65;;
61393;SDS011;48555;50.952;-0.120;2024-02-21T01:45:54;12.45;;;2.50;;
61393;SDS011;48555;50.952;-0.120;2024-02-21T01:48:24;10.05;;;2.50;;
61393;SDS011;48555;50.952;-0.120;2024-02-21T01:50:50;10.27;;;2.45;;
61393;SDS011;48555;50.952;-0.120;2024-02-21T01:53:17;11.40;;;2.70;;
61393;SDS011;48555;50.952;-0.120;2024-02-21T01:55:45;7.75;;;2.50;;
61393;SDS011;48555;50.952;-0.120;2024-02-21T01:58:13;15.38;;;2.80;;
61393;SDS011;48555;50.952;-0.120;2024-02-21T02:00:40;13.65;;;3.15;;
61393;SDS011;48555;50.952;-0.120;2024-02-21T02:03:09;8.32;;;2.00;;
61393;SDS011;48555;50.952;-0.120;2024-02-21T02:05:41;9.82;;;2.20;;
61393;SDS011;48555;50.952;-0.120;2024-02-21T02:08:14;11.23;;;2.47;;
61393;SDS011;48555;50.952;-0.120;2024-02-21T02:10:40;9.77;;;2.47;;
61393;SDS011;48555;50.952;-0.120;2024-02-21T02:13:06;9.40;;;2.58;;
61393;SDS011;48555;50.952;-0.120;2024-02-21T02:15:38;11.15;;;2.30;;
61393;SDS011;48555;50.952;-0.120;2024-02-21T02:18:03;10.88;;;2.20;;
61393;SDS011;48555;50.952;-0.120;2024-02-21T02:20:29;10.80;;;2.00;;
61393;SDS011;48555;50.952;-0.120;2024-02-21T02:22:54;10.45;;;2.25;;
61393;SDS011;48555;50.952;-0.120;2024-02-21T02:25:20;9.85;;;2.25;;
61393;SDS011;48555;50.952;-0.120;2024-02-21T02:27:45;11.55;;;2.40;;
61393;SDS011;48555;50.952;-0.120;2024-02-21T02:30:11;11.32;;;2.72;;
61393;SDS011;48555;50.952;-0.120;2024-02-21T02:32:38;8.35;;;1.95;;
61393;SDS011;48555;50.952;-0.120;2024-02-21T02:35:03;9.98;;;2.55;;
61393;SDS011;48555;50.952;-0.120;2024-02-21T02:37:29;7.57;;;2.00;;
61393;SDS011;48555;50.952;-0.120;2024-02-21T02:39:54;8.70;;;2.35;;
61393;SDS011;48555;50.952;-0.120;2024-02-21T02:42:20;10.90;;;3.33;;
61393;SDS011;48555;50.952;-0.120;2024-02-21T02:44:45;6.50;;;2.03;;
61393;SDS011;48555;50.952;-0.120;2024-02-21T02:47:10;6.72;;;2.22;;
61393;SDS011;48555;50.952;-0.120;2024-02-21T02:49:36;10.30;;;2.30;;
61393;SDS011;48555;50.952;-0.120;2024-02-21T02:52:01;11.00;;;2.58;;
61393;SDS011;48555;50.952;-0.120;2024-02-21T02:54:27;7.55;;;2.40;;
61393;SDS011;48555;50.952;-0.120;2024-02-21T02:56:52;9.55;;;2.10;;
61393;SDS011;48555;50.952;-0.120;2024-02-21T02:59:18;6.30;;;2.35;;
61393;SDS011;48555;50.952;-0.120;2024-02-21T03:01:43;9.48;;;1.83;;
61393;SDS011;48555;50.952;-0.120;2024-02-21T03:04:08;7.05;;;2.08;;
61393;SDS011;48555;50.952;-0.120;2024-02-21T03:06:34;7.35;;;2.03;;
61393;SDS011;48555;50.952;-0.120;2024-02-21T03:08:59;9.25;;;2.33;;
61393;SDS011;48555;50.952;-0.120;2024-02-21T03:11:25;8.30;;;2.38;;
61393;SDS011;48555;50.952;-0.120;2024-02-21T03:13:54;7.07;;;2.30;;
61393;SDS011;48555;50.952;-0.120;2024-02-21T03:16:20;9.70;;;2.33;;
61393;SDS011;48555;50.952;-0.120;2024-02-21T03:18:46;9.57;;;2.25;;
61393;SDS011;48555;50.952;-0.120;2024-02-21T03:21:11;12.32;;;2.50;;
61393;SDS011;48555;50.952;-0.120;2024-02-21T03:23:37;9.15;;;2.30;;
61393;SDS011;48555;50.952;-0.120;2024-02-21T03:26:02;5.25;;;1.88;;
61393;SDS011;48555;50.952;-0.120;2024-02-21T03:28:27;8.63;;;2.17;;
61393;SDS011;48555;50.952;-0.120;2024-02-21T03:30:53;5.95;;;2.00;;
61393;SDS011;48555;50.952;-0.120;2024-02-21T03:33:18;10.98;;;2.30;;
61393;SDS011;48555;50.952;-0.120;2024-02-21T03:35:45;4.10;;;1.88;;
61393;SDS011;48555;50.952;-0.120;2024-02-21T03:38:10;8.50;;;2.67;;
61393;SDS011;48555;50.952;-0.120;2024-02-21T03:40:35;9.55;;;2.28;;
61393;SDS011;48555;50.952;-0.120;2024-02-21T03:43:01;9.63;;;2.22;;
61393;SDS011;48555;50.952;-0.120;2024-02-21T03:45:26;9.82;;;1.92;;
61393;SDS011;48555;50.952;-0.120;2024-02-21T03:47:51;8.02;;;2.10;;
61393;SDS011;48555;50.952;-0.120;2024-02-21T03:50:17;8.55;;;2.20;;
61393;SDS011;48555;50.952;-0.120;2024-02-21T03:52:42;8.00;;;2.00;;
61393;SDS011;48555;50.952;-0.120;2024-02-21T03:55:07;8.07;;;2.00;;
61393;SDS011;48555;50.952;-0.120;2024-02-21T03:57:33;9.07;;;1.80;;
61393;SDS011;48555;50.952;-0.120;2024-02-21T03:59:58;6.80;;;2.20;;
61393;SDS011;48555;50.952;-0.120;2024-02-21T04:02:23;11.02;;;2.00;;
61393;SDS011;48555;50.952;-0.120;2024-02-21T04:04:49;5.85;;;1.95;;
61393;SDS011;48555;50.952;-0.120;2024-02-21T04:07:14;12.93;;;2.50;;
61393;SDS011;48555;50.952;-0.120;2024-02-21T04:09:40;8.98;;;2.63;;
61393;SDS011;48555;50.952;-0.120;2024-02-21T04:12:08;6.05;;;2.13;;
61393;SDS011;48555;50.952;-0.120;2024-02-21T04:14:34;8.32;;;1.98;;
61393;SDS011;48555;50.952;-0.120;2024-02-21T04:16:59;6.57;;;2.28;;
61393;SDS011;48555;50.952;-0.120;2024-02-21T04:19:25;7.28;;;2.05;;
61393;SDS011;48555;50.952;-0.120;2024-02-21T04:21:50;11.60;;;2.65;;
61393;SDS011;48555;50.952;-0.120;2024-02-21T04:24:15;7.00;;;2.35;;
61393;SDS011;48555;50.952;-0.120;2024-02-21T04:26:41;10.43;;;2.25;;
61393;SDS011;48555;50.952;-0.120;2024-02-21T04:29:06;8.40;;;2.15;;
61393;SDS011;48555;50.952;-0.120;2024-02-21T04:31:32;9.63;;;2.40;;
61393;SDS011;48555;50.952;-0.120;2024-02-21T04:33:58;6.22;;;2.03;;
61393;SDS011;48555;50.952;-0.120;2024-02-21T04:36:23;8.13;;;2.15;;
61393;SDS011;48555;50.952;-0.120;2024-02-21T04:38:48;10.25;;;2.42;;
61393;SDS011;48555;50.952;-0.120;2024-02-21T04:41:15;10.20;;;2.95;;
61393;SDS011;48555;50.952;-0.120;2024-02-21T04:43:40;11.27;;;2.22;;
61393;SDS011;48555;50.952;-0.120;2024-02-21T04:46:06;11.70;;;2.53;;
61393;SDS011;48555;50.952;-0.120;2024-02-21T04:48:31;7.97;;;2.70;;
61393;SDS011;48555;50.952;-0.120;2024-02-21T04:50:57;12.00;;;2.25;;
61393;SDS011;48555;50.952;-0.120;2024-02-21T04:53:22;9.82;;;1.90;;
61393;SDS011;48555;50.952;-0.120;2024-02-21T04:55:47;10.45;;;2.20;;
61393;SDS011;48555;50.952;-0.120;2024-02-21T04:58:13;8.40;;;2.40;;
61393;SDS011;48555;50.952;-0.120;2024-02-21T05:00:38;6.85;;;2.08;;
61393;SDS011;48555;50.952;-0.120;2024-02-21T05:03:03;8.35;;;2.88;;
61393;SDS011;48555;50.952;-0.120;2024-02-21T05:05:29;6.57;;;2.10;;
61393;SDS011;48555;50.952;-0.120;2024-02-21T05:07:54;9.73;;;2.83;;
61393;SDS011;48555;50.952;-0.120;2024-02-21T05:10:19;9.65;;;2.08;;
61393;SDS011;48555;50.952;-0.120;2024-02-21T05:12:45;9.88;;;2.10;;
61393;SDS011;48555;50.952;-0.120;2024-02-21T05:15:11;8.10;;;2.00;;
61393;SDS011;48555;50.952;-0.120;2024-02-21T05:17:36;10.85;;;2.25;;
61393;SDS011;48555;50.952;-0.120;2024-02-21T05:20:01;8.98;;;2.58;;
61393;SDS011;48555;50.952;-0.120;2024-02-21T05:22:27;10.45;;;2.80;;
61393;SDS011;48555;50.952;-0.120;2024-02-21T05:24:52;9.02;;;2.33;;
61393;SDS011;48555;50.952;-0.120;2024-02-21T05:27:17;11.10;;;2.83;;
61393;SDS011;48555;50.952;-0.120;2024-02-21T05:29:43;6.75;;;2.13;;
61393;SDS011;48555;50.952;-0.120;2024-02-21T05:32:09;9.15;;;2.38;;
61393;SDS011;48555;50.952;-0.120;2024-02-21T05:34:34;9.55;;;1.95;;
61393;SDS011;48555;50.952;-0.120;2024-02-21T05:37:00;7.80;;;2.22;;
61393;SDS011;48555;50.952;-0.120;2024-02-21T05:39:26;6.28;;;2.05;;
61393;SDS011;48555;50.952;-0.120;2024-02-21T05:41:51;9.13;;;3.03;;
61393;SDS011;48555;50.952;-0.120;2024-02-21T05:44:18;7.00;;;1.73;;
61393;SDS011;48555;50.952;-0.120;2024-02-21T05:46:44;9.93;;;2.00;;
61393;SDS011;48555;50.952;-0.120;2024-02-21T05:49:09;9.32;;;2.00;;
61393;SDS011;48555;50.952;-0.120;2024-02-21T05:51:34;6.25;;;1.70;;
61393;SDS011;48555;50.952;-0.120;2024-02-21T05:54:00;6.50;;;1.80;;
61393;SDS011;48555;50.952;-0.120;2024-02-21T05:56:26;7.88;;;2.20;;
61393;SDS011;48555;50.952;-0.120;2024-02-21T05:58:51;6.32;;;2.20;;
61393;SDS011;48555;50.952;-0.120;2024-02-21T06:01:17;5.90;;;1.77;;
61393;SDS011;48555;50.952;-0.120;2024-02-21T06:03:43;5.82;;;1.70;;
61393;SDS011;48555;50.952;-0.120;2024-02-21T06:06:08;6.60;;;2.20;;
61393;SDS011;48555;50.952;-0.120;2024-02-21T06:08:33;6.75;;;2.60;;
61393;SDS011;48555;50.952;-0.120;2024-02-21T06:10:59;6.53;;;1.92;;
61393;SDS011;48555;50.952;-0.120;2024-02-21T06:13:24;6.25;;;1.92;;
61393;SDS011;48555;50.952;-0.120;2024-02-21T06:15:50;6.50;;;1.80;;
61393;SDS011;48555;50.952;-0.120;2024-02-21T06:18:18;6.50;;;1.73;;
61393;SDS011;48555;50.952;-0.120;2024-02-21T06:20:45;7.63;;;2.20;;
61393;SDS011;48555;50.952;-0.120;2024-02-21T06:23:15;4.60;;;1.70;;
61393;SDS011;48555;50.952;-0.120;2024-02-21T06:25:41;5.88;;;1.70;;
61393;SDS011;48555;50.952;-0.120;2024-02-21T06:28:07;6.05;;;1.85;;
61393;SDS011;48555;50.952;-0.120;2024-02-21T06:30:33;8.57;;;2.15;;
61393;SDS011;48555;50.952;-0.120;2024-02-21T06:32:58;7.43;;;1.90;;
61393;SDS011;48555;50.952;-0.120;2024-02-21T06:35:24;6.28;;;1.90;;
61393;SDS011;48555;50.952;-0.120;2024-02-21T06:37:50;7.03;;;1.67;;
61393;SDS011;48555;50.952;-0.120;2024-02-21T06:40:17;6.70;;;1.92;;
61393;SDS011;48555;50.952;-0.120;2024-02-21T06:42:42;6.88;;;1.80;;
61393;SDS011;48555;50.952;-0.120;2024-02-21T06:45:08;8.57;;;2.30;;
61393;SDS011;48555;50.952;-0.120;2024-02-21T06:47:33;6.78;;;1.98;;
61393;SDS011;48555;50.952;-0.120;2024-02-21T06:49:59;6.95;;;2.50;;
61393;SDS011;48555;50.952;-0.120;2024-02-21T06:52:24;6.47;;;1.92;;
61393;SDS011;48555;50.952;-0.120;2024-02-21T06:54:50;5.88;;;2.38;;
61393;SDS011;48555;50.952;-0.120;2024-02-21T06:57:15;8.30;;;2.15;;
61393;SDS011;48555;50.952;-0.120;2024-02-21T06:59:41;10.65;;;2.28;;
61393;SDS011;48555;50.952;-0.120;2024-02-21T07:02:07;6.97;;;2.05;;
61393;SDS011;48555;50.952;-0.120;2024-02-21T07:04:33;8.30;;;2.33;;
61393;SDS011;48555;50.952;-0.120;2024-02-21T07:06:58;4.90;;;2.00;;
61393;SDS011;48555;50.952;-0.120;2024-02-21T07:09:23;12.35;;;2.10;;
61393;SDS011;48555;50.952;-0.120;2024-02-21T07:11:49;6.82;;;2.15;;
61393;SDS011;48555;50.952;-0.120;2024-02-21T07:14:14;8.00;;;2.45;;
61393;SDS011;48555;50.952;-0.120;2024-02-21T07:16:40;9.90;;;2.95;;
61393;SDS011;48555;50.952;-0.120;2024-02-21T07:19:06;6.45;;;2.47;;
61393;SDS011;48555;50.952;-0.120;2024-02-21T07:21:31;9.30;;;2.75;;
61393;SDS011;48555;50.952;-0.120;2024-02-21T07:23:56;8.30;;;2.30;;
61393;SDS011;48555;50.952;-0.120;2024-02-21T07:26:22;6.05;;;2.30;;
61393;SDS011;48555;50.952;-0.120;2024-02-21T07:28:47;7.43;;;2.30;;
61393;SDS011;48555;50.952;-0.120;2024-02-21T07:31:12;6.60;;;2.45;;
61393;SDS011;48555;50.952;-0.120;2024-02-21T07:33:38;9.98;;;2.95;;
61393;SDS011;48555;50.952;-0.120;2024-02-21T07:36:07;6.05;;;1.90;;
61393;SDS011;48555;50.952;-0.120;2024-02-21T07:38:36;7.75;;;2.20;;
61393;SDS011;48555;50.952;-0.120;2024-02-21T07:41:02;6.65;;;2.63;;
61393;SDS011;48555;50.952;-0.120;2024-02-21T07:43:29;5.80;;;1.98;;
61393;SDS011;48555;50.952;-0.120;2024-02-21T07:45:54;7.57;;;2.28;;
61393;SDS011;48555;50.952;-0.120;2024-02-21T07:48:20;6.10;;;2.00;;
61393;SDS011;48555;50.952;-0.120;2024-02-21T07:50:49;6.47;;;2.40;;
61393;SDS011;48555;50.952;-0.120;2024-02-21T07:53:15;4.75;;;1.77;;
61393;SDS011;48555;50.952;-0.120;2024-02-21T07:55:40;6.72;;;2.20;;
61393;SDS011;48555;50.952;-0.120;2024-02-21T07:58:06;7.78;;;1.90;;
61393;SDS011;48555;50.952;-0.120;2024-02-21T08:00:31;7.70;;;2.13;;
61393;SDS011;48555;50.952;-0.120;2024-02-21T08:02:56;10.00;;;2.20;;
61393;SDS011;48555;50.952;-0.120;2024-02-21T08:05:22;8.23;;;2.30;;
61393;SDS011;48555;50.952;-0.120;2024-02-21T08:07:48;8.05;;;2.20;;
61393;SDS011;48555;50.952;-0.120;2024-02-21T08:10:13;7.03;;;2.08;;
61393;SDS011;48555;50.952;-0.120;2024-02-21T08:12:38;7.90;;;1.80;;
61393;SDS011;48555;50.952;-0.120;2024-02-21T08:15:04;8.90;;;2.03;;
61393;SDS011;48555;50.952;-0.120;2024-02-21T08:17:29;7.60;;;1.80;;
61393;SDS011;48555;50.952;-0.120;2024-02-21T08:19:55;6.55;;;1.98;;
61393;SDS011;48555;50.952;-0.120;2024-02-21T08:22:20;7.47;;;1.67;;
61393;SDS011;48555;50.952;-0.120;2024-02-21T08:24:45;9.45;;;2.08;;
61393;SDS011;48555;50.952;-0.120;2024-02-21T08:27:11;7.78;;;1.60;;
61393;SDS011;48555;50.952;-0.120;2024-02-21T08:29:36;7.40;;;1.52;;
61393;SDS011;48555;50.952;-0.120;2024-02-21T08:32:01;8.32;;;2.17;;
61393;SDS011;48555;50.952;-0.120;2024-02-21T08:34:27;5.13;;;1.58;;
61393;SDS011;48555;50.952;-0.120;2024-02-21T08:36:54;10.73;;;2.42;;
61393;SDS011;48555;50.952;-0.120;2024-02-21T08:39:20;7.50;;;2.15;;
61393;SDS011;48555;50.952;-0.120;2024-02-21T08:41:45;8.13;;;1.70;;
61393;SDS011;48555;50.952;-0.120;2024-02-21T08:44:10;4.53;;;1.48;;
61393;SDS011;48555;50.952;-0.120;2024-02-21T08:46:36;9.43;;;2.00;;
61393;SDS011;48555;50.952;-0.120;2024-02-21T08:49:05;8.10;;;1.30;;
61393;SDS011;48555;50.952;-0.120;2024-02-21T08:51:30;8.02;;;1.67;;
61393;SDS011;48555;50.952;-0.120;2024-02-21T08:53:56;7.30;;;1.65;;
61393;SDS011;48555;50.952;-0.120;2024-02-21T08:56:21;9.20;;;1.70;;
61393;SDS011;48555;50.952;-0.120;2024-02-21T08:58:46;7.45;;;1.83;;
61393;SDS011;48555;50.952;-0.120;2024-02-21T09:01:12;7.93;;;1.77;;
61393;SDS011;48555;50.952;-0.120;2024-02-21T09:03:37;11.93;;;2.33;;
61393;SDS011;48555;50.952;-0.120;2024-02-21T09:06:04;7.75;;;1.77;;
61393;SDS011;48555;50.952;-0.120;2024-02-21T09:08:30;5.55;;;1.45;;
61393;SDS011;48555;50.952;-0.120;2024-02-21T09:10:55;10.70;;;1.90;;
61393;SDS011;48555;50.952;-0.120;2024-02-21T09:13:21;7.28;;;1.58;;
61393;SDS011;48555;50.952;-0.120;2024-02-21T09:15:47;6.25;;;1.45;;
61393;SDS011;48555;50.952;-0.120;2024-02-21T09:18:13;6.93;;;1.80;;
61393;SDS011;48555;50.952;-0.120;2024-02-21T09:20:39;7.30;;;1.60;;
61393;SDS011;48555;50.952;-0.120;2024-02-21T09:23:04;7.15;;;1.27;;
61393;SDS011;48555;50.952;-0.120;2024-02-21T09:25:30;7.60;;;1.73;;
61393;SDS011;48555;50.952;-0.120;2024-02-21T09:27:56;6.88;;;1.40;;
61393;SDS011;48555;50.952;-0.120;2024-02-21T09:30:23;7.35;;;1.55;;
61393;SDS011;48555;50.952;-0.120;2024-02-21T09:32:48;6.72;;;2.00;;
61393;SDS011;48555;50.952;-0.120;2024-02-21T09:35:13;8.30;;;1.75;;
61393;SDS011;48555;50.952;-0.120;2024-02-21T09:37:40;5.65;;;1.60;;
61393;SDS011;48555;50.952;-0.120;2024-02-21T09:40:05;9.88;;;2.20;;
61393;SDS011;48555;50.952;-0.120;2024-02-21T09:42:38;7.20;;;1.55;;
61393;SDS011;48555;50.952;-0.120;2024-02-21T09:45:07;10.00;;;2.13;;
61393;SDS011;48555;50.952;-0.120;2024-02-21T09:50:30;12.30;;;2.10;;
61393;SDS011;48555;50.952;-0.120;2024-02-21T09:52:58;7.78;;;1.98;;
61393;SDS011;48555;50.952;-0.120;2024-02-21T09:55:27;9.77;;;2.10;;
61393;SDS011;48555;50.952;-0.120;2024-02-21T09:57:54;8.60;;;1.55;;
61393;SDS011;48555;50.952;-0.120;2024-02-21T10:00:22;7.68;;;1.77;;
61393;SDS011;48555;50.952;-0.120;2024-02-21T10:02:48;9.52;;;1.58;;
61393;SDS011;48555;50.952;-0.120;2024-02-21T10:05:15;8.13;;;1.55;;
61393;SDS011;48555;50.952;-0.120;2024-02-21T10:07:41;8.30;;;1.50;;
61393;SDS011;48555;50.952;-0.120;2024-02-21T10:10:06;5.85;;;1.58;;
61393;SDS011;48555;50.952;-0.120;2024-02-21T10:12:32;5.40;;;1.55;;
61393;SDS011;48555;50.952;-0.120;2024-02-21T10:15:04;5.65;;;1.25;;
61393;SDS011;48555;50.952;-0.120;2024-02-21T10:17:31;7.32;;;1.67;;
61393;SDS011;48555;50.952;-0.120;2024-02-21T10:20:06;5.10;;;1.23;;
61393;SDS011;48555;50.952;-0.120;2024-02-21T10:22:33;4.35;;;1.30;;
61393;SDS011;48555;50.952;-0.120;2024-02-21T10:25:07;6.03;;;1.45;;
61393;SDS011;48555;50.952;-0.120;2024-02-21T10:27:36;4.70;;;1.42;;
61393;SDS011;48555;50.952;-0.120;2024-02-21T10:30:02;4.75;;;1.30;;
61393;SDS011;48555;50.952;-0.120;2024-02-21T10:32:28;3.55;;;1.40;;
61393;SDS011;48555;50.952;-0.120;2024-02-21T10:35:02;5.30;;;1.40;;
61393;SDS011;48555;50.952;-0.120;2024-02-21T10:37:31;3.75;;;1.08;;
61393;SDS011;48555;50.952;-0.120;2024-02-21T10:39:57;4.53;;;1.30;;
61393;SDS011;48555;50.952;-0.120;2024-02-21T10:42:22;9.38;;;1.80;;
61393;SDS011;48555;50.952;-0.120;2024-02-21T10:44:53;5.35;;;1.13;;
61393;SDS011;48555;50.952;-0.120;2024-02-21T10:49:55;8.80;;;1.50;;
61393;SDS011;48555;50.952;-0.120;2024-02-21T10:52:43;3.60;;;1.00;;
61393;SDS011;48555;50.952;-0.120;2024-02-21T10:55:26;5.07;;;1.17;;
61393;SDS011;48555;50.952;-0.120;2024-02-21T10:58:02;6.65;;;1.38;;
61393;SDS011;48555;50.952;-0.120;2024-02-21T11:00:28;6.75;;;1.58;;
61393;SDS011;48555;50.952;-0.120;2024-02-21T11:02:56;5.75;;;1.77;;
61393;SDS011;48555;50.952;-0.120;2024-02-21T11:05:23;5.45;;;1.20;;
61393;SDS011;48555;50.952;-0.120;2024-02-21T11:07:50;5.22;;;1.33;;
61393;SDS011;48555;50.952;-0.120;2024-02-21T11:10:22;8.43;;;1.67;;
61393;SDS011;48555;50.952;-0.120;2024-02-21T11:12:52;5.28;;;0.93;;
61393;SDS011;48555;50.952;-0.120;2024-02-21T11:15:19;6.88;;;1.52;;
61393;SDS011;48555;50.952;-0.120;2024-02-21T11:17:55;4.97;;;1.38;;
61393;SDS011;48555;50.952;-0.120;2024-02-21T11:20:21;8.43;;;1.77;;
61393;SDS011;48555;50.952;-0.120;2024-02-21T11:22:57;10.18;;;1.45;;
61393;SDS011;48555;50.952;-0.120;2024-02-21T11:25:23;9.65;;;2.13;;
61393;SDS011;48555;50.952;-0.120;2024-02-21T11:27:48;8.30;;;1.75;;
61393;SDS011;48555;50.952;-0.120;2024-02-21T11:30:13;8.00;;;1.58;;
61393;SDS011;48555;50.952;-0.120;2024-02-21T11:32:47;7.35;;;1.45;;
61393;SDS011;48555;50.952;-0.120;2024-02-21T11:35:20;10.60;;;1.98;;
61393;SDS011;48555;50.952;-0.120;2024-02-21T11:37:45;6.55;;;1.70;;
61393;SDS011;48555;50.952;-0.120;2024-02-21T11:40:11;5.28;;;1.20;;
61393;SDS011;48555;50.952;-0.120;2024-02-21T11:42:37;9.18;;;1.77;;
61393;SDS011;48555;50.952;-0.120;2024-02-21T11:45:03;6.68;;;1.98;;
61393;SDS011;48555;50.952;-0.120;2024-02-21T11:47:28;7.53;;;1.40;;
61393;SDS011;48555;50.952;-0.120;2024-02-21T11:49:54;7.60;;;1.75;;
61393;SDS011;48555;50.952;-0.120;2024-02-21T11:52:23;13.77;;;1.67;;
61393;SDS011;48555;50.952;-0.120;2024-02-21T11:54:50;4.00;;;1.08;;
61393;SDS011;48555;50.952;-0.120;2024-02-21T11:57:16;10.52;;;1.70;;
61393;SDS011;48555;50.952;-0.120;2024-02-21T11:59:43;11.60;;;1.63;;
61393;SDS011;48555;50.952;-0.120;2024-02-21T12:02:09;9.27;;;1.60;;
61393;SDS011;48555;50.952;-0.120;2024-02-21T12:04:35;11.13;;;2.03;;
61393;SDS011;48555;50.952;-0.120;2024-02-21T12:07:01;5.65;;;1.50;;
61393;SDS011;48555;50.952;-0.120;2024-02-21T12:09:28;8.27;;;1.63;;
61393;SDS011;48555;50.952;-0.120;2024-02-21T12:12:01;7.63;;;1.83;;
61393;SDS011;48555;50.952;-0.120;2024-02-21T12:14:28;6.00;;;1.70;;
61393;SDS011;48555;50.952;-0.120;2024-02-21T12:16:57;8.32;;;1.73;;
61393;SDS011;48555;50.952;-0.120;2024-02-21T12:19:29;6.25;;;1.73;;
61393;SDS011;48555;50.952;-0.120;2024-02-21T12:21:55;8.43;;;1.95;;
61393;SDS011;48555;50.952;-0.120;2024-02-21T12:24:22;7.10;;;1.80;;
61393;SDS011;48555;50.952;-0.120;2024-02-21T12:26:49;6.88;;;1.40;;
61393;SDS011;48555;50.952;-0.120;2024-02-21T12:29:15;8.77;;;1.70;;
61393;SDS011;48555;50.952;-0.120;2024-02-21T12:31:41;6.53;;;1.80;;
61393;SDS011;48555;50.952;-0.120;2024-02-21T12:34:06;9.95;;;1.77;;
61393;SDS011;48555;50.952;-0.120;2024-02-21T12:36:32;7.22;;;1.95;;
61393;SDS011;48555;50.952;-0.120;2024-02-21T12:38:58;8.93;;;1.95;;
61393;SDS011;48555;50.952;-0.120;2024-02-21T12:41:25;3.97;;;1.13;;
61393;SDS011;48555;50.952;-0.120;2024-02-21T12:43:52;6.38;;;1.20;;
61393;SDS011;48555;50.952;-0.120;2024-02-21T12:46:17;6.35;;;1.60;;
61393;SDS011;48555;50.952;-0.120;2024-02-21T12:48:43;4.57;;;1.40;;
61393;SDS011;48555;50.952;-0.120;2024-02-21T12:51:08;5.97;;;1.35;;
61393;SDS011;48555;50.952;-0.120;2024-02-21T12:53:33;9.55;;;1.75;;
61393;SDS011;48555;50.952;-0.120;2024-02-21T12:55:59;10.00;;;1.90;;
61393;SDS011;48555;50.952;-0.120;2024-02-21T12:58:25;7.25;;;1.80;;
61393;SDS011;48555;50.952;-0.120;2024-02-21T13:00:50;7.72;;;1.88;;
61393;SDS011;48555;50.952;-0.120;2024-02-21T13:03:15;9.60;;;1.77;;
61393;SDS011;48555;50.952;-0.120;2024-02-21T13:05:41;8.00;;;1.83;;
61393;SDS011;48555;50.952;-0.120;2024-02-21T13:08:06;5.32;;;1.58;;
61393;SDS011;48555;50.952;-0.120;2024-02-21T13:10:32;9.40;;;1.90;;
61393;SDS011;48555;50.952;-0.120;2024-02-21T13:13:01;8.63;;;1.85;;
61393;SDS011;48555;50.952;-0.120;2024-02-21T13:15:27;5.35;;;1.27;;
61393;SDS011;48555;50.952;-0.120;2024-02-21T13:17:53;6.20;;;1.50;;
61393;SDS011;48555;50.952;-0.120;2024-02-21T13:20:19;6.78;;;1.40;;
61393;SDS011;48555;50.952;-0.120;2024-02-21T13:22:46;7.90;;;1.83;;
61393;SDS011;48555;50.952;-0.120;2024-02-21T13:25:11;8.00;;;1.60;;
61393;SDS011;48555;50.952;-0.120;2024-02-21T13:27:40;9.23;;;1.67;;
61393;SDS011;48555;50.952;-0.120;2024-02-21T13:30:05;6.45;;;1.52;;
61393;SDS011;48555;50.952;-0.120;2024-02-21T13:32:33;9.07;;;1.60;;
61393;SDS011;48555;50.952;-0.120;2024-02-21T13:34:59;8.77;;;2.15;;
61393;SDS011;48555;50.952;-0.120;2024-02-21T13:37:26;10.55;;;1.75;;
61393;SDS011;48555;50.952;-0.120;2024-02-21T13:39:52;8.40;;;1.83;;
61393;SDS011;48555;50.952;-0.120;2024-02-21T13:42:17;7.97;;;1.73;;
61393;SDS011;48555;50.952;-0.120;2024-02-21T13:44:44;8.63;;;1.73;;
61393;SDS011;48555;50.952;-0.120;2024-02-21T13:47:09;8.38;;;1.85;;
61393;SDS011;48555;50.952;-0.120;2024-02-21T13:49:36;10.45;;;2.13;;
61393;SDS011;48555;50.952;-0.120;2024-02-21T13:52:01;8.63;;;2.00;;
61393;SDS011;48555;50.952;-0.120;2024-02-21T13:54:27;12.45;;;2.22;;
61393;SDS011;48555;50.952;-0.120;2024-02-21T13:56:52;8.38;;;1.70;;
61393;SDS011;48555;50.952;-0.120;2024-02-21T13:59:18;8.90;;;1.80;;
61393;SDS011;48555;50.952;-0.120;2024-02-21T14:01:43;8.55;;;1.75;;
61393;SDS011;48555;50.952;-0.120;2024-02-21T14:04:09;6.82;;;1.98;;
61393;SDS011;48555;50.952;-0.120;2024-02-21T14:06:34;7.53;;;2.17;;
61393;SDS011;48555;50.952;-0.120;2024-02-21T14:09:00;7.18;;;1.55;;
61393;SDS011;48555;50.952;-0.120;2024-02-21T14:11:25;6.85;;;1.67;;
61393;SDS011;48555;50.952;-0.120;2024-02-21T14:13:52;10.85;;;1.80;;
61393;SDS011;48555;50.952;-0.120;2024-02-21T14:16:17;6.88;;;1.63;;
61393;SDS011;48555;50.952;-0.120;2024-02-21T14:18:43;7.00;;;1.90;;
61393;SDS011;48555;50.952;-0.120;2024-02-21T14:21:09;6.50;;;1.85;;
61393;SDS011;48555;50.952;-0.120;2024-02-21T14:23:36;11.13;;;1.90;;
61393;SDS011;48555;50.952;-0.120;2024-02-21T14:26:04;5.40;;;2.03;;
61393;SDS011;48555;50.952;-0.120;2024-02-21T14:28:30;5.80;;;1.35;;
61393;SDS011;48555;50.952;-0.120;2024-02-21T14:30:55;7.13;;;1.55;;